sensor_id;sensor_type;location;lat;lon;timestamp;P1;durP1;ratioP1;P2;durP2;ratioP2
20090;SDS011;10205;49.678;6.560;2023-08-24T00:01:38;2.00;;;1.80;;
20090;SDS011;10205;49.678;6.560;2023-08-24T00:04:07;2.88;;;1.83;;
20090;SDS011;10205;49.678;6.560;2023-08-24T00:06:35;2.47;;;2.20;;
20090;SDS011;10205;49.678;6.560;2023-08-24T00:09:03;4.03;;;1.90;;
20090;SDS011;10205;49.678;6.560;2023-08-24T00:11:31;2.13;;;1.80;;
20090;SDS011;10205;49.678;6.560;2023-08-24T00:13:58;1.85;;;1.60;;
20090;SDS011;10205;49.678;6.560;2023-08-24T00:16:26;1.83;;;1.73;;
20090;SDS011;10205;49.678;6.560;2023-08-24T00:18:54;2.00;;;1.77;;
20090;SDS011;10205;49.678;6.560;2023-08-24T00:21:23;2.13;;;1.88;;
20090;SDS011;10205;49.678;6.560;2023-08-24T00:23:50;2.75;;;2.15;;
20090;SDS011;10205;49.678;6.560;2023-08-24T00:26:18;2.10;;;1.90;;
20090;SDS011;10205;49.678;6.560;2023-08-24T00:28:46;2.38;;;2.05;;
20090;SDS011;10205;49.678;6.560;2023-08-24T00:31:15;1.98;;;1.80;;
20090;SDS011;10205;49.678;6.560;2023-08-24T00:33:42;1.83;;;1.73;;
20090;SDS011;10205;49.678;6.560;2023-08-24T00:36:10;2.42;;;1.83;;
20090;SDS011;10205;49.678;6.560;2023-08-24T00:38:39;2.05;;;1.80;;
20090;SDS011;10205;49.678;6.560;2023-08-24T00:41:08;2.97;;;2.00;;
20090;SDS011;10205;49.678;6.560;2023-08-24T00:43:35;1.85;;;1.73;;
20090;SDS011;10205;49.678;6.560;2023-08-24T00:46:03;2.10;;;1.83;;
20090;SDS011;10205;49.678;6.560;2023-08-24T00:48:30;1.83;;;1.73;;
20090;SDS011;10205;49.678;6.560;2023-08-24T00:50:59;2.00;;;1.67;;
20090;SDS011;10205;49.678;6.560;2023-08-24T00:53:28;2.08;;;1.88;;
20090;SDS011;10205;49.678;6.560;2023-08-24T00:55:58;2.38;;;1.65;;
20090;SDS011;10205;49.678;6.560;2023-08-24T00:58:27;2.10;;;1.75;;
20090;SDS011;10205;49.678;6.560;2023-08-24T01:00:55;2.45;;;2.00;;
20090;SDS011;10205;49.678;6.560;2023-08-24T01:03:23;2.78;;;2.30;;
20090;SDS011;10205;49.678;6.560;2023-08-24T01:05:51;2.13;;;1.80;;
20090;SDS011;10205;49.678;6.560;2023-08-24T01:08:19;1.70;;;1.60;;
20090;SDS011;10205;49.678;6.560;2023-08-24T01:10:52;2.22;;;1.83;;
20090;SDS011;10205;49.678;6.560;2023-08-24T01:13:31;1.70;;;1.60;;
20090;SDS011;10205;49.678;6.560;2023-08-24T01:16:08;2.28;;;1.85;;
20090;SDS011;10205;49.678;6.560;2023-08-24T01:18:42;2.25;;;1.98;;
20090;SDS011;10205;49.678;6.560;2023-08-24T01:21:11;2.20;;;2.00;;
20090;SDS011;10205;49.678;6.560;2023-08-24T01:23:41;1.63;;;1.52;;
20090;SDS011;10205;49.678;6.560;2023-08-24T01:26:20;3.28;;;1.83;;
20090;SDS011;10205;49.678;6.560;2023-08-24T01:28:50;2.10;;;1.67;;
20090;SDS011;10205;49.678;6.560;2023-08-24T01:31:17;2.65;;;1.85;;
20090;SDS011;10205;49.678;6.560;2023-08-24T01:33:45;2.15;;;1.60;;
20090;SDS011;10205;49.678;6.560;2023-08-24T01:36:15;2.05;;;1.80;;
20090;SDS011;10205;49.678;6.560;2023-08-24T01:38:43;2.03;;;1.90;;
20090;SDS011;10205;49.678;6.560;2023-08-24T01:41:21;2.38;;;1.95;;
20090;SDS011;10205;49.678;6.560;2023-08-24T01:43:54;2.33;;;1.83;;
20090;SDS011;10205;49.678;6.560;2023-08-24T01:46:26;2.85;;;1.90;;
20090;SDS011;10205;49.678;6.560;2023-08-24T01:48:55;2.17;;;2.00;;
20090;SDS011;10205;49.678;6.560;2023-08-24T01:51:24;2.40;;;1.75;;
20090;SDS011;10205;49.678;6.560;2023-08-24T01:53:52;2.05;;;1.73;;
20090;SDS011;10205;49.678;6.560;2023-08-24T01:56:22;2.22;;;1.67;;
20090;SDS011;10205;49.678;6.560;2023-08-24T01:58:50;2.35;;;2.08;;
20090;SDS011;10205;49.678;6.560;2023-08-24T02:01:18;3.00;;;2.20;;
20090;SDS011;10205;49.678;6.560;2023-08-24T02:03:45;3.05;;;1.83;;
20090;SDS011;10205;49.678;6.560;2023-08-24T02:06:13;3.00;;;1.60;;
20090;SDS011;10205;49.678;6.560;2023-08-24T02:08:40;2.72;;;1.85;;
20090;SDS011;10205;49.678;6.560;2023-08-24T02:11:09;2.55;;;2.00;;
20090;SDS011;10205;49.678;6.560;2023-08-24T02:13:38;1.58;;;1.48;;
20090;SDS011;10205;49.678;6.560;2023-08-24T02:16:06;3.08;;;2.03;;
20090;SDS011;10205;49.678;6.560;2023-08-24T02:18:35;2.70;;;1.73;;
20090;SDS011;10205;49.678;6.560;2023-08-24T02:21:06;1.80;;;1.40;;
20090;SDS011;10205;49.678;6.560;2023-08-24T02:23:36;4.45;;;2.03;;
20090;SDS011;10205;49.678;6.560;2023-08-24T02:26:04;2.85;;;1.80;;
20090;SDS011;10205;49.678;6.560;2023-08-24T02:28:32;2.85;;;2.33;;
20090;SDS011;10205;49.678;6.560;2023-08-24T02:31:04;2.42;;;2.22;;
20090;SDS011;10205;49.678;6.560;2023-08-24T02:33:31;3.60;;;2.08;;
20090;SDS011;10205;49.678;6.560;2023-08-24T02:36:00;2.28;;;2.00;;
20090;SDS011;10205;49.678;6.560;2023-08-24T02:38:27;2.90;;;2.17;;
20090;SDS011;10205;49.678;6.560;2023-08-24T02:41:01;1.95;;;1.80;;
20090;SDS011;10205;49.678;6.560;2023-08-24T02:43:30;3.42;;;1.80;;
20090;SDS011;10205;49.678;6.560;2023-08-24T02:46:00;1.63;;;1.50;;
20090;SDS011;10205;49.678;6.560;2023-08-24T02:48:31;3.00;;;2.20;;
20090;SDS011;10205;49.678;6.560;2023-08-24T02:50:59;2.42;;;1.92;;
20090;SDS011;10205;49.678;6.560;2023-08-24T02:53:29;2.88;;;2.00;;
20090;SDS011;10205;49.678;6.560;2023-08-24T02:55:57;2.17;;;1.83;;
20090;SDS011;10205;49.678;6.560;2023-08-24T02:58:24;2.55;;;2.03;;
20090;SDS011;10205;49.678;6.560;2023-08-24T03:00:52;2.30;;;2.10;;
20090;SDS011;10205;49.678;6.560;2023-08-24T03:03:20;1.90;;;1.73;;
20090;SDS011;10205;49.678;6.560;2023-08-24T03:05:56;3.97;;;2.35;;
20090;SDS011;10205;49.678;6.560;2023-08-24T03:08:27;3.03;;;2.50;;
20090;SDS011;10205;49.678;6.560;2023-08-24T03:10:56;2.33;;;2.10;;
20090;SDS011;10205;49.678;6.560;2023-08-24T03:13:24;2.17;;;1.80;;
20090;SDS011;10205;49.678;6.560;2023-08-24T03:15:52;3.42;;;1.98;;
20090;SDS011;10205;49.678;6.560;2023-08-24T03:18:20;3.00;;;2.40;;
20090;SDS011;10205;49.678;6.560;2023-08-24T03:20:48;2.40;;;1.98;;
20090;SDS011;10205;49.678;6.560;2023-08-24T03:23:18;3.17;;;1.92;;
20090;SDS011;10205;49.678;6.560;2023-08-24T03:25:45;2.35;;;2.10;;
20090;SDS011;10205;49.678;6.560;2023-08-24T03:28:12;2.90;;;2.05;;
20090;SDS011;10205;49.678;6.560;2023-08-24T03:30:40;3.97;;;2.50;;
20090;SDS011;10205;49.678;6.560;2023-08-24T03:33:13;4.03;;;2.80;;
20090;SDS011;10205;49.678;6.560;2023-08-24T03:35:41;2.58;;;2.30;;
20090;SDS011;10205;49.678;6.560;2023-08-24T03:38:11;6.38;;;2.42;;
20090;SDS011;10205;49.678;6.560;2023-08-24T03:40:40;2.95;;;2.65;;
20090;SDS011;10205;49.678;6.560;2023-08-24T03:43:08;4.57;;;2.75;;
20090;SDS011;10205;49.678;6.560;2023-08-24T03:45:35;2.47;;;2.05;;
20090;SDS011;10205;49.678;6.560;2023-08-24T03:48:03;2.42;;;2.10;;
20090;SDS011;10205;49.678;6.560;2023-08-24T03:50:30;3.45;;;2.47;;
20090;SDS011;10205;49.678;6.560;2023-08-24T03:52:58;2.78;;;1.90;;
20090;SDS011;10205;49.678;6.560;2023-08-24T03:55:26;4.07;;;2.28;;
20090;SDS011;10205;49.678;6.560;2023-08-24T03:57:54;2.70;;;2.38;;
20090;SDS011;10205;49.678;6.560;2023-08-24T04:00:22;1.90;;;1.80;;
20090;SDS011;10205;49.678;6.560;2023-08-24T04:02:51;2.17;;;1.98;;
20090;SDS011;10205;49.678;6.560;2023-08-24T04:05:18;2.20;;;2.00;;
20090;SDS011;10205;49.678;6.560;2023-08-24T04:07:46;2.45;;;2.25;;
20090;SDS011;10205;49.678;6.560;2023-08-24T04:10:13;3.35;;;2.33;;
20090;SDS011;10205;49.678;6.560;2023-08-24T04:12:40;2.95;;;2.15;;
20090;SDS011;10205;49.678;6.560;2023-08-24T04:15:11;1.98;;;1.80;;
20090;SDS011;10205;49.678;6.560;2023-08-24T04:17:39;2.20;;;2.00;;
20090;SDS011;10205;49.678;6.560;2023-08-24T04:20:07;2.30;;;1.95;;
20090;SDS011;10205;49.678;6.560;2023-08-24T04:22:35;3.38;;;2.10;;
20090;SDS011;10205;49.678;6.560;2023-08-24T04:25:03;2.00;;;1.70;;
20090;SDS011;10205;49.678;6.560;2023-08-24T04:27:32;2.40;;;2.05;;
20090;SDS011;10205;49.678;6.560;2023-08-24T04:29:59;3.30;;;2.17;;
20090;SDS011;10205;49.678;6.560;2023-08-24T04:32:31;2.35;;;2.13;;
20090;SDS011;10205;49.678;6.560;2023-08-24T04:34:58;2.65;;;2.13;;
20090;SDS011;10205;49.678;6.560;2023-08-24T04:37:26;3.20;;;2.25;;
20090;SDS011;10205;49.678;6.560;2023-08-24T04:39:53;2.38;;;2.17;;
20090;SDS011;10205;49.678;6.560;2023-08-24T04:42:21;5.45;;;2.35;;
20090;SDS011;10205;49.678;6.560;2023-08-24T04:44:50;3.50;;;2.30;;
20090;SDS011;10205;49.678;6.560;2023-08-24T04:47:19;2.67;;;2.03;;
20090;SDS011;10205;49.678;6.560;2023-08-24T04:49:48;3.17;;;2.28;;
20090;SDS011;10205;49.678;6.560;2023-08-24T04:52:16;4.03;;;2.30;;
20090;SDS011;10205;49.678;6.560;2023-08-24T04:54:44;5.05;;;2.00;;
20090;SDS011;10205;49.678;6.560;2023-08-24T04:57:11;2.33;;;2.10;;
20090;SDS011;10205;49.678;6.560;2023-08-24T04:59:39;2.63;;;2.13;;
20090;SDS011;10205;49.678;6.560;2023-08-24T05:02:06;2.78;;;2.00;;
20090;SDS011;10205;49.678;6.560;2023-08-24T05:04:34;3.03;;;2.15;;
20090;SDS011;10205;49.678;6.560;2023-08-24T05:07:03;2.95;;;1.85;;
20090;SDS011;10205;49.678;6.560;2023-08-24T05:09:30;6.13;;;2.78;;
20090;SDS011;10205;49.678;6.560;2023-08-24T05:11:57;5.07;;;2.53;;
20090;SDS011;10205;49.678;6.560;2023-08-24T05:14:25;2.92;;;2.60;;
20090;SDS011;10205;49.678;6.560;2023-08-24T05:16:52;2.17;;;1.98;;
20090;SDS011;10205;49.678;6.560;2023-08-24T05:19:19;2.10;;;1.90;;
20090;SDS011;10205;49.678;6.560;2023-08-24T05:21:47;3.35;;;2.30;;
20090;SDS011;10205;49.678;6.560;2023-08-24T05:24:16;2.92;;;2.47;;
20090;SDS011;10205;49.678;6.560;2023-08-24T05:26:43;3.10;;;2.10;;
20090;SDS011;10205;49.678;6.560;2023-08-24T05:29:11;2.47;;;2.28;;
20090;SDS011;10205;49.678;6.560;2023-08-24T05:31:38;2.17;;;1.92;;
20090;SDS011;10205;49.678;6.560;2023-08-24T05:34:05;2.22;;;2.03;;
20090;SDS011;10205;49.678;6.560;2023-08-24T05:36:35;3.60;;;1.98;;
20090;SDS011;10205;49.678;6.560;2023-08-24T05:39:03;2.80;;;2.20;;
20090;SDS011;10205;49.678;6.560;2023-08-24T05:41:32;4.07;;;2.67;;
20090;SDS011;10205;49.678;6.560;2023-08-24T05:44:01;2.78;;;2.33;;
20090;SDS011;10205;49.678;6.560;2023-08-24T05:46:29;2.47;;;2.00;;
20090;SDS011;10205;49.678;6.560;2023-08-24T05:48:57;2.33;;;2.00;;
20090;SDS011;10205;49.678;6.560;2023-08-24T05:51:25;2.55;;;2.22;;
20090;SDS011;10205;49.678;6.560;2023-08-24T05:53:53;3.53;;;2.55;;
20090;SDS011;10205;49.678;6.560;2023-08-24T05:56:21;4.55;;;2.40;;
20090;SDS011;10205;49.678;6.560;2023-08-24T05:58:50;2.55;;;2.08;;
20090;SDS011;10205;49.678;6.560;2023-08-24T06:01:18;3.28;;;2.45;;
20090;SDS011;10205;49.678;6.560;2023-08-24T06:03:45;2.33;;;2.13;;
20090;SDS011;10205;49.678;6.560;2023-08-24T06:06:13;2.40;;;2.10;;
20090;SDS011;10205;49.678;6.560;2023-08-24T06:08:40;2.58;;;2.10;;
20090;SDS011;10205;49.678;6.560;2023-08-24T06:11:08;2.38;;;2.17;;
20090;SDS011;10205;49.678;6.560;2023-08-24T06:13:36;5.93;;;2.25;;
20090;SDS011;10205;49.678;6.560;2023-08-24T06:16:05;3.08;;;2.25;;
20090;SDS011;10205;49.678;6.560;2023-08-24T06:18:32;3.30;;;2.50;;
20090;SDS011;10205;49.678;6.560;2023-08-24T06:21:00;2.97;;;2.15;;
20090;SDS011;10205;49.678;6.560;2023-08-24T06:23:27;2.85;;;2.20;;
20090;SDS011;10205;49.678;6.560;2023-08-24T06:25:55;2.58;;;2.38;;
20090;SDS011;10205;49.678;6.560;2023-08-24T06:28:22;2.90;;;2.22;;
20090;SDS011;10205;49.678;6.560;2023-08-24T06:30:49;4.47;;;2.45;;
20090;SDS011;10205;49.678;6.560;2023-08-24T06:33:18;2.83;;;2.03;;
20090;SDS011;10205;49.678;6.560;2023-08-24T06:35:45;3.88;;;2.60;;
20090;SDS011;10205;49.678;6.560;2023-08-24T06:38:13;2.70;;;2.40;;
20090;SDS011;10205;49.678;6.560;2023-08-24T06:40:40;2.35;;;2.05;;
20090;SDS011;10205;49.678;6.560;2023-08-24T06:43:07;2.13;;;1.92;;
20090;SDS011;10205;49.678;6.560;2023-08-24T06:45:35;3.00;;;2.00;;
20090;SDS011;10205;49.678;6.560;2023-08-24T06:48:02;3.42;;;2.60;;
20090;SDS011;10205;49.678;6.560;2023-08-24T06:50:33;2.35;;;2.15;;
20090;SDS011;10205;49.678;6.560;2023-08-24T06:53:01;4.13;;;2.58;;
20090;SDS011;10205;49.678;6.560;2023-08-24T06:55:29;2.67;;;1.73;;
20090;SDS011;10205;49.678;6.560;2023-08-24T06:57:57;2.30;;;2.10;;
20090;SDS011;10205;49.678;6.560;2023-08-24T07:00:24;2.65;;;1.98;;
20090;SDS011;10205;49.678;6.560;2023-08-24T07:02:52;2.95;;;2.35;;
20090;SDS011;10205;49.678;6.560;2023-08-24T07:05:19;3.10;;;2.42;;
20090;SDS011;10205;49.678;6.560;2023-08-24T07:07:48;2.60;;;2.40;;
20090;SDS011;10205;49.678;6.560;2023-08-24T07:10:16;3.60;;;2.20;;
20090;SDS011;10205;49.678;6.560;2023-08-24T07:12:44;3.40;;;2.33;;
20090;SDS011;10205;49.678;6.560;2023-08-24T07:15:12;2.53;;;2.00;;
20090;SDS011;10205;49.678;6.560;2023-08-24T07:17:40;2.25;;;2.05;;
20090;SDS011;10205;49.678;6.560;2023-08-24T07:20:08;5.80;;;2.90;;
20090;SDS011;10205;49.678;6.560;2023-08-24T07:22:36;2.83;;;2.13;;
20090;SDS011;10205;49.678;6.560;2023-08-24T07:25:06;2.35;;;2.15;;
20090;SDS011;10205;49.678;6.560;2023-08-24T07:27:36;2.40;;;1.98;;
20090;SDS011;10205;49.678;6.560;2023-08-24T07:30:04;2.92;;;2.17;;
20090;SDS011;10205;49.678;6.560;2023-08-24T07:32:34;3.45;;;2.13;;
20090;SDS011;10205;49.678;6.560;2023-08-24T07:35:02;1.92;;;1.60;;
20090;SDS011;10205;49.678;6.560;2023-08-24T07:37:31;2.65;;;2.40;;
20090;SDS011;10205;49.678;6.560;2023-08-24T07:39:59;2.92;;;2.08;;
20090;SDS011;10205;49.678;6.560;2023-08-24T07:42:28;3.67;;;2.28;;
20090;SDS011;10205;49.678;6.560;2023-08-24T07:44:55;2.30;;;2.10;;
20090;SDS011;10205;49.678;6.560;2023-08-24T07:47:23;2.58;;;1.98;;
20090;SDS011;10205;49.678;6.560;2023-08-24T07:49:51;2.58;;;2.25;;
20090;SDS011;10205;49.678;6.560;2023-08-24T07:52:18;2.40;;;2.20;;
20090;SDS011;10205;49.678;6.560;2023-08-24T07:54:47;4.35;;;2.28;;
20090;SDS011;10205;49.678;6.560;2023-08-24T07:57:14;3.70;;;2.28;;
20090;SDS011;10205;49.678;6.560;2023-08-24T07:59:43;5.25;;;2.15;;
20090;SDS011;10205;49.678;6.560;2023-08-24T08:02:10;2.90;;;2.10;;
20090;SDS011;10205;49.678;6.560;2023-08-24T08:04:40;3.05;;;2.28;;
20090;SDS011;10205;49.678;6.560;2023-08-24T08:07:07;3.38;;;2.90;;
20090;SDS011;10205;49.678;6.560;2023-08-24T08:09:35;4.45;;;2.30;;
20090;SDS011;10205;49.678;6.560;2023-08-24T08:12:03;3.53;;;2.38;;
20090;SDS011;10205;49.678;6.560;2023-08-24T08:14:32;2.38;;;2.17;;
20090;SDS011;10205;49.678;6.560;2023-08-24T08:17:01;3.15;;;2.25;;
20090;SDS011;10205;49.678;6.560;2023-08-24T08:19:28;5.47;;;2.63;;
20090;SDS011;10205;49.678;6.560;2023-08-24T08:21:56;2.33;;;2.13;;
20090;SDS011;10205;49.678;6.560;2023-08-24T08:24:24;3.63;;;2.63;;
20090;SDS011;10205;49.678;6.560;2023-08-24T08:26:51;2.85;;;2.05;;
20090;SDS011;10205;49.678;6.560;2023-08-24T08:29:19;3.97;;;2.90;;
20090;SDS011;10205;49.678;6.560;2023-08-24T08:31:46;3.60;;;2.40;;
20090;SDS011;10205;49.678;6.560;2023-08-24T08:34:15;3.95;;;2.75;;
20090;SDS011;10205;49.678;6.560;2023-08-24T08:36:43;3.75;;;2.53;;
20090;SDS011;10205;49.678;6.560;2023-08-24T08:39:10;5.75;;;3.42;;
20090;SDS011;10205;49.678;6.560;2023-08-24T08:41:41;2.55;;;2.35;;
20090;SDS011;10205;49.678;6.560;2023-08-24T08:44:11;4.68;;;2.90;;
20090;SDS011;10205;49.678;6.560;2023-08-24T08:46:41;4.80;;;3.33;;
20090;SDS011;10205;49.678;6.560;2023-08-24T08:49:11;4.43;;;2.75;;
20090;SDS011;10205;49.678;6.560;2023-08-24T08:51:43;5.55;;;2.95;;
20090;SDS011;10205;49.678;6.560;2023-08-24T08:54:11;3.85;;;2.65;;
20090;SDS011;10205;49.678;6.560;2023-08-24T08:56:39;5.57;;;2.72;;
20090;SDS011;10205;49.678;6.560;2023-08-24T08:59:07;3.38;;;2.70;;
20090;SDS011;10205;49.678;6.560;2023-08-24T09:01:39;4.95;;;2.80;;
20090;SDS011;10205;49.678;6.560;2023-08-24T09:04:09;6.07;;;2.90;;
20090;SDS011;10205;49.678;6.560;2023-08-24T09:06:37;4.45;;;2.75;;
20090;SDS011;10205;49.678;6.560;2023-08-24T09:09:07;4.60;;;2.83;;
20090;SDS011;10205;49.678;6.560;2023-08-24T09:11:35;3.08;;;2.75;;
20090;SDS011;10205;49.678;6.560;2023-08-24T09:14:04;3.63;;;2.40;;
20090;SDS011;10205;49.678;6.560;2023-08-24T09:16:31;3.88;;;3.10;;
20090;SDS011;10205;49.678;6.560;2023-08-24T09:19:00;4.28;;;2.53;;
20090;SDS011;10205;49.678;6.560;2023-08-24T09:21:35;6.95;;;3.08;;
20090;SDS011;10205;49.678;6.560;2023-08-24T09:24:05;8.57;;;3.25;;
20090;SDS011;10205;49.678;6.560;2023-08-24T09:26:35;2.88;;;2.53;;
20090;SDS011;10205;49.678;6.560;2023-08-24T09:29:11;6.15;;;2.67;;
20090;SDS011;10205;49.678;6.560;2023-08-24T09:31:40;3.67;;;2.25;;
20090;SDS011;10205;49.678;6.560;2023-08-24T09:34:09;5.07;;;3.22;;
20090;SDS011;10205;49.678;6.560;2023-08-24T09:36:37;3.55;;;2.33;;
20090;SDS011;10205;49.678;6.560;2023-08-24T09:39:08;3.88;;;2.53;;
20090;SDS011;10205;49.678;6.560;2023-08-24T09:41:38;4.07;;;2.72;;
20090;SDS011;10205;49.678;6.560;2023-08-24T09:44:06;3.75;;;2.65;;
20090;SDS011;10205;49.678;6.560;2023-08-24T09:46:34;3.47;;;2.95;;
20090;SDS011;10205;49.678;6.560;2023-08-24T09:49:04;5.13;;;2.60;;
20090;SDS011;10205;49.678;6.560;2023-08-24T09:51:33;5.50;;;2.65;;
20090;SDS011;10205;49.678;6.560;2023-08-24T09:54:02;3.00;;;2.60;;
20090;SDS011;10205;49.678;6.560;2023-08-24T09:56:35;5.78;;;2.70;;
20090;SDS011;10205;49.678;6.560;2023-08-24T09:59:07;3.08;;;2.28;;
20090;SDS011;10205;49.678;6.560;2023-08-24T10:01:40;2.22;;;2.03;;
20090;SDS011;10205;49.678;6.560;2023-08-24T10:04:10;2.63;;;2.33;;
20090;SDS011;10205;49.678;6.560;2023-08-24T10:06:39;2.58;;;2.17;;
20090;SDS011;10205;49.678;6.560;2023-08-24T10:09:11;3.10;;;2.47;;
20090;SDS011;10205;49.678;6.560;2023-08-24T10:11:49;2.38;;;2.15;;
20090;SDS011;10205;49.678;6.560;2023-08-24T10:14:24;3.15;;;2.25;;
20090;SDS011;10205;49.678;6.560;2023-08-24T10:16:57;4.38;;;2.58;;
20090;SDS011;10205;49.678;6.560;2023-08-24T10:19:25;3.08;;;2.42;;
20090;SDS011;10205;49.678;6.560;2023-08-24T10:21:54;5.40;;;2.80;;
20090;SDS011;10205;49.678;6.560;2023-08-24T10:24:23;7.03;;;2.75;;
20090;SDS011;10205;49.678;6.560;2023-08-24T10:26:53;2.83;;;2.58;;
20090;SDS011;10205;49.678;6.560;2023-08-24T10:29:22;3.95;;;2.55;;
20090;SDS011;10205;49.678;6.560;2023-08-24T10:31:54;3.58;;;2.88;;
20090;SDS011;10205;49.678;6.560;2023-08-24T10:34:23;4.70;;;2.92;;
20090;SDS011;10205;49.678;6.560;2023-08-24T10:36:51;2.85;;;2.47;;
20090;SDS011;10205;49.678;6.560;2023-08-24T10:39:18;4.65;;;2.67;;
20090;SDS011;10205;49.678;6.560;2023-08-24T10:41:57;3.60;;;2.72;;
20090;SDS011;10205;49.678;6.560;2023-08-24T10:44:33;2.88;;;2.40;;
20090;SDS011;10205;49.678;6.560;2023-08-24T10:47:05;3.63;;;2.50;;
20090;SDS011;10205;49.678;6.560;2023-08-24T10:49:39;4.32;;;3.03;;
20090;SDS011;10205;49.678;6.560;2023-08-24T10:52:16;3.83;;;2.88;;
20090;SDS011;10205;49.678;6.560;2023-08-24T10:54:48;3.28;;;2.35;;
20090;SDS011;10205;49.678;6.560;2023-08-24T10:57:19;6.25;;;2.70;;
20090;SDS011;10205;49.678;6.560;2023-08-24T10:59:59;4.05;;;2.38;;
20090;SDS011;10205;49.678;6.560;2023-08-24T11:02:41;4.22;;;2.83;;
20090;SDS011;10205;49.678;6.560;2023-08-24T11:05:17;2.58;;;2.38;;
20090;SDS011;10205;49.678;6.560;2023-08-24T11:07:49;3.95;;;2.70;;
20090;SDS011;10205;49.678;6.560;2023-08-24T11:10:20;3.70;;;2.50;;
20090;SDS011;10205;49.678;6.560;2023-08-24T11:13:06;4.10;;;3.03;;
20090;SDS011;10205;49.678;6.560;2023-08-24T11:15:39;3.38;;;2.75;;
20090;SDS011;10205;49.678;6.560;2023-08-24T11:18:15;2.75;;;2.50;;
20090;SDS011;10205;49.678;6.560;2023-08-24T11:20:51;4.82;;;2.50;;
20090;SDS011;10205;49.678;6.560;2023-08-24T11:23:20;3.75;;;2.88;;
20090;SDS011;10205;49.678;6.560;2023-08-24T11:25:51;4.82;;;2.60;;
20090;SDS011;10205;49.678;6.560;2023-08-24T11:28:24;5.30;;;2.55;;
20090;SDS011;10205;49.678;6.560;2023-08-24T11:30:53;5.18;;;2.67;;
20090;SDS011;10205;49.678;6.560;2023-08-24T11:33:28;3.55;;;2.38;;
20090;SDS011;10205;49.678;6.560;2023-08-24T11:35:57;2.85;;;2.50;;
20090;SDS011;10205;49.678;6.560;2023-08-24T11:38:24;2.70;;;2.50;;
20090;SDS011;10205;49.678;6.560;2023-08-24T11:41:10;3.15;;;2.45;;
20090;SDS011;10205;49.678;6.560;2023-08-24T11:43:41;3.58;;;2.40;;
20090;SDS011;10205;49.678;6.560;2023-08-24T11:46:09;3.10;;;2.65;;
20090;SDS011;10205;49.678;6.560;2023-08-24T11:48:37;4.22;;;2.70;;
20090;SDS011;10205;49.678;6.560;2023-08-24T11:51:07;5.00;;;2.50;;
20090;SDS011;10205;49.678;6.560;2023-08-24T11:53:37;4.10;;;3.03;;
20090;SDS011;10205;49.678;6.560;2023-08-24T11:56:07;5.05;;;2.90;;
20090;SDS011;10205;49.678;6.560;2023-08-24T11:58:37;5.50;;;2.75;;
20090;SDS011;10205;49.678;6.560;2023-08-24T12:01:07;5.57;;;2.55;;
20090;SDS011;10205;49.678;6.560;2023-08-24T12:03:36;2.72;;;2.50;;
20090;SDS011;10205;49.678;6.560;2023-08-24T12:06:09;4.43;;;2.72;;
20090;SDS011;10205;49.678;6.560;2023-08-24T12:08:39;3.45;;;2.60;;
20090;SDS011;10205;49.678;6.560;2023-08-24T12:11:12;2.97;;;2.63;;
20090;SDS011;10205;49.678;6.560;2023-08-24T12:13:46;2.72;;;2.50;;
20090;SDS011;10205;49.678;6.560;2023-08-24T12:16:15;3.25;;;2.72;;
20090;SDS011;10205;49.678;6.560;2023-08-24T12:18:48;5.65;;;2.38;;
20090;SDS011;10205;49.678;6.560;2023-08-24T12:21:18;3.10;;;2.38;;
20090;SDS011;10205;49.678;6.560;2023-08-24T12:23:56;3.38;;;2.88;;
20090;SDS011;10205;49.678;6.560;2023-08-24T12:26:25;5.10;;;2.67;;
20090;SDS011;10205;49.678;6.560;2023-08-24T12:28:59;5.65;;;2.80;;
20090;SDS011;10205;49.678;6.560;2023-08-24T12:31:29;3.15;;;2.65;;
20090;SDS011;10205;49.678;6.560;2023-08-24T12:34:00;4.05;;;2.78;;
20090;SDS011;10205;49.678;6.560;2023-08-24T12:36:37;3.33;;;2.75;;
20090;SDS011;10205;49.678;6.560;2023-08-24T12:39:06;3.47;;;2.60;;
20090;SDS011;10205;49.678;6.560;2023-08-24T12:41:35;6.00;;;2.92;;
20090;SDS011;10205;49.678;6.560;2023-08-24T12:44:05;3.47;;;2.42;;
20090;SDS011;10205;49.678;6.560;2023-08-24T12:46:33;3.58;;;2.25;;
20090;SDS011;10205;49.678;6.560;2023-08-24T12:49:01;3.40;;;2.67;;
20090;SDS011;10205;49.678;6.560;2023-08-24T12:51:29;2.47;;;2.28;;
20090;SDS011;10205;49.678;6.560;2023-08-24T12:53:57;4.43;;;2.67;;
20090;SDS011;10205;49.678;6.560;2023-08-24T12:56:24;2.40;;;2.20;;
20090;SDS011;10205;49.678;6.560;2023-08-24T12:58:52;2.78;;;2.15;;
20090;SDS011;10205;49.678;6.560;2023-08-24T13:01:22;3.15;;;2.00;;
20090;SDS011;10205;49.678;6.560;2023-08-24T13:03:49;3.60;;;2.30;;
20090;SDS011;10205;49.678;6.560;2023-08-24T13:06:16;3.90;;;2.10;;
20090;SDS011;10205;49.678;6.560;2023-08-24T13:08:44;2.40;;;2.20;;
20090;SDS011;10205;49.678;6.560;2023-08-24T13:11:11;3.08;;;2.40;;
20090;SDS011;10205;49.678;6.560;2023-08-24T13:13:39;3.38;;;2.60;;
20090;SDS011;10205;49.678;6.560;2023-08-24T13:16:10;4.32;;;2.60;;
20090;SDS011;10205;49.678;6.560;2023-08-24T13:18:39;4.30;;;2.30;;
20090;SDS011;10205;49.678;6.560;2023-08-24T13:21:07;2.70;;;2.35;;
20090;SDS011;10205;49.678;6.560;2023-08-24T13:23:35;2.40;;;2.20;;
20090;SDS011;10205;49.678;6.560;2023-08-24T13:26:02;3.40;;;2.60;;
20090;SDS011;10205;49.678;6.560;2023-08-24T13:28:29;4.80;;;2.95;;
20090;SDS011;10205;49.678;6.560;2023-08-24T13:30:57;3.78;;;2.58;;
20090;SDS011;10205;49.678;6.560;2023-08-24T13:33:25;2.85;;;2.40;;
20090;SDS011;10205;49.678;6.560;2023-08-24T13:35:54;4.40;;;2.65;;
20090;SDS011;10205;49.678;6.560;2023-08-24T13:38:22;4.68;;;2.67;;
20090;SDS011;10205;49.678;6.560;2023-08-24T13:40:51;3.13;;;2.30;;
20090;SDS011;10205;49.678;6.560;2023-08-24T13:43:19;3.38;;;2.22;;
20090;SDS011;10205;49.678;6.560;2023-08-24T13:45:47;2.55;;;2.00;;
20090;SDS011;10205;49.678;6.560;2023-08-24T13:48:15;2.50;;;2.30;;
20090;SDS011;10205;49.678;6.560;2023-08-24T13:50:48;2.97;;;2.30;;
20090;SDS011;10205;49.678;6.560;2023-08-24T13:53:19;2.35;;;2.13;;
20090;SDS011;10205;49.678;6.560;2023-08-24T13:55:47;2.83;;;2.20;;
20090;SDS011;10205;49.678;6.560;2023-08-24T13:58:15;2.85;;;2.10;;
20090;SDS011;10205;49.678;6.560;2023-08-24T14:00:42;2.53;;;2.33;;
20090;SDS011;10205;49.678;6.560;2023-08-24T14:03:10;2.67;;;2.20;;
20090;SDS011;10205;49.678;6.560;2023-08-24T14:05:38;2.95;;;2.40;;
20090;SDS011;10205;49.678;6.560;2023-08-24T14:08:10;3.25;;;2.40;;
20090;SDS011;10205;49.678;6.560;2023-08-24T14:10:40;2.67;;;2.20;;
20090;SDS011;10205;49.678;6.560;2023-08-24T14:13:08;4.22;;;2.63;;
20090;SDS011;10205;49.678;6.560;2023-08-24T14:15:35;4.60;;;2.35;;
20090;SDS011;10205;49.678;6.560;2023-08-24T14:18:03;2.35;;;2.15;;
20090;SDS011;10205;49.678;6.560;2023-08-24T14:20:31;3.10;;;2.22;;
20090;SDS011;10205;49.678;6.560;2023-08-24T14:22:58;3.17;;;2.10;;
20090;SDS011;10205;49.678;6.560;2023-08-24T14:25:27;2.95;;;2.20;;
20090;SDS011;10205;49.678;6.560;2023-08-24T14:27:56;6.32;;;2.33;;
20090;SDS011;10205;49.678;6.560;2023-08-24T14:30:23;2.60;;;2.00;;
20090;SDS011;10205;49.678;6.560;2023-08-24T14:32:51;3.30;;;2.00;;
20090;SDS011;10205;49.678;6.560;2023-08-24T14:35:18;2.88;;;2.50;;
20090;SDS011;10205;49.678;6.560;2023-08-24T14:37:46;4.00;;;2.10;;
20090;SDS011;10205;49.678;6.560;2023-08-24T14:40:13;2.92;;;2.20;;
20090;SDS011;10205;49.678;6.560;2023-08-24T14:42:41;5.25;;;2.10;;
20090;SDS011;10205;49.678;6.560;2023-08-24T14:45:10;2.08;;;1.90;;
20090;SDS011;10205;49.678;6.560;2023-08-24T14:47:37;3.08;;;2.10;;
20090;SDS011;10205;49.678;6.560;2023-08-24T14:50:06;2.22;;;1.83;;
20090;SDS011;10205;49.678;6.560;2023-08-24T14:52:35;3.17;;;1.85;;
20090;SDS011;10205;49.678;6.560;2023-08-24T14:55:03;3.65;;;2.58;;
20090;SDS011;10205;49.678;6.560;2023-08-24T14:57:33;3.05;;;2.20;;
20090;SDS011;10205;49.678;6.560;2023-08-24T15:00:01;5.57;;;2.60;;